sensor_id;sensor_type;location;lat;lon;timestamp;P1;durP1;ratioP1;P2;durP2;ratioP2
10013;SDS011;45684;48.358;10.746;2022-10-30T00:00:31;6.10;;;3.80;;
10013;SDS011;45684;48.358;10.746;2022-10-30T00:02:59;5.03;;;3.97;;
10013;SDS011;45684;48.358;10.746;2022-10-30T00:05:28;4.13;;;3.73;;
10013;SDS011;45684;48.358;10.746;2022-10-30T00:07:57;5.53;;;3.80;;
10013;SDS011;45684;48.358;10.746;2022-10-30T00:10:26;5.40;;;3.60;;
10013;SDS011;45684;48.358;10.746;2022-10-30T00:12:53;5.17;;;3.10;;
10013;SDS011;45684;48.358;10.746;2022-10-30T00:15:21;4.43;;;3.47;;
10013;SDS011;45684;48.358;10.746;2022-10-30T00:17:49;3.47;;;3.17;;
10013;SDS011;45684;48.358;10.746;2022-10-30T00:20:17;3.90;;;3.40;;
10013;SDS011;45684;48.358;10.746;2022-10-30T00:22:44;4.47;;;3.37;;
10013;SDS011;45684;48.358;10.746;2022-10-30T00:25:13;4.00;;;3.30;;
10013;SDS011;45684;48.358;10.746;2022-10-30T00:27:42;6.23;;;3.57;;
10013;SDS011;45684;48.358;10.746;2022-10-30T00:30:10;3.60;;;3.30;;
10013;SDS011;45684;48.358;10.746;2022-10-30T00:32:38;4.67;;;3.70;;
10013;SDS011;45684;48.358;10.746;2022-10-30T00:35:06;3.80;;;3.43;;
10013;SDS011;45684;48.358;10.746;2022-10-30T00:37:34;8.93;;;3.87;;
10013;SDS011;45684;48.358;10.746;2022-10-30T00:40:02;4.40;;;3.73;;
10013;SDS011;45684;48.358;10.746;2022-10-30T00:42:32;3.90;;;3.43;;
10013;SDS011;45684;48.358;10.746;2022-10-30T00:45:02;4.63;;;3.83;;
10013;SDS011;45684;48.358;10.746;2022-10-30T00:47:31;4.67;;;3.63;;
10013;SDS011;45684;48.358;10.746;2022-10-30T00:50:03;5.43;;;3.57;;
10013;SDS011;45684;48.358;10.746;2022-10-30T00:52:36;6.10;;;4.20;;
10013;SDS011;45684;48.358;10.746;2022-10-30T00:55:08;7.90;;;4.17;;
10013;SDS011;45684;48.358;10.746;2022-10-30T00:57:41;5.87;;;4.10;;
10013;SDS011;45684;48.358;10.746;2022-10-30T01:00:10;5.07;;;4.20;;
10013;SDS011;45684;48.358;10.746;2022-10-30T01:02:39;9.00;;;4.50;;
10013;SDS011;45684;48.358;10.746;2022-10-30T01:05:09;7.50;;;3.93;;
10013;SDS011;45684;48.358;10.746;2022-10-30T01:07:41;5.13;;;4.00;;
10013;SDS011;45684;48.358;10.746;2022-10-30T01:10:09;6.10;;;4.20;;
10013;SDS011;45684;48.358;10.746;2022-10-30T01:12:38;4.37;;;3.53;;
10013;SDS011;45684;48.358;10.746;2022-10-30T01:15:10;4.10;;;3.70;;
10013;SDS011;45684;48.358;10.746;2022-10-30T01:17:46;5.23;;;3.57;;
10013;SDS011;45684;48.358;10.746;2022-10-30T01:20:32;4.63;;;3.57;;
10013;SDS011;45684;48.358;10.746;2022-10-30T01:23:13;4.47;;;3.60;;
10013;SDS011;45684;48.358;10.746;2022-10-30T01:25:54;3.97;;;3.67;;
10013;SDS011;45684;48.358;10.746;2022-10-30T01:28:34;3.73;;;3.40;;
10013;SDS011;45684;48.358;10.746;2022-10-30T01:31:21;4.43;;;3.50;;
10013;SDS011;45684;48.358;10.746;2022-10-30T01:34:02;3.60;;;3.30;;
10013;SDS011;45684;48.358;10.746;2022-10-30T01:36:37;5.40;;;3.60;;
10013;SDS011;45684;48.358;10.746;2022-10-30T01:39:10;4.57;;;3.57;;
10013;SDS011;45684;48.358;10.746;2022-10-30T01:41:40;4.07;;;3.37;;
10013;SDS011;45684;48.358;10.746;2022-10-30T01:44:09;4.27;;;3.50;;
10013;SDS011;45684;48.358;10.746;2022-10-30T01:46:46;5.37;;;3.47;;
10013;SDS011;45684;48.358;10.746;2022-10-30T01:49:30;5.27;;;3.30;;
10013;SDS011;45684;48.358;10.746;2022-10-30T01:52:32;6.27;;;3.47;;
10013;SDS011;45684;48.358;10.746;2022-10-30T01:55:06;5.10;;;3.13;;
10013;SDS011;45684;48.358;10.746;2022-10-30T01:57:46;5.63;;;4.43;;
10013;SDS011;45684;48.358;10.746;2022-10-30T02:00:21;3.87;;;3.47;;
10013;SDS011;45684;48.358;10.746;2022-10-30T02:02:51;4.77;;;3.30;;
10013;SDS011;45684;48.358;10.746;2022-10-30T02:05:24;3.83;;;2.90;;
10013;SDS011;45684;48.358;10.746;2022-10-30T02:07:54;3.80;;;2.70;;
10013;SDS011;45684;48.358;10.746;2022-10-30T02:10:24;3.27;;;3.00;;
10013;SDS011;45684;48.358;10.746;2022-10-30T02:12:52;3.87;;;3.20;;
10013;SDS011;45684;48.358;10.746;2022-10-30T02:15:22;4.33;;;3.13;;
10013;SDS011;45684;48.358;10.746;2022-10-30T02:17:53;4.07;;;2.97;;
10013;SDS011;45684;48.358;10.746;2022-10-30T02:20:24;5.97;;;3.00;;
10013;SDS011;45684;48.358;10.746;2022-10-30T02:22:52;4.47;;;3.40;;
10013;SDS011;45684;48.358;10.746;2022-10-30T02:25:29;5.30;;;3.40;;
10013;SDS011;45684;48.358;10.746;2022-10-30T02:27:57;5.40;;;3.37;;
10013;SDS011;45684;48.358;10.746;2022-10-30T02:30:27;5.73;;;3.40;;
10013;SDS011;45684;48.358;10.746;2022-10-30T02:32:55;5.93;;;3.83;;
10013;SDS011;45684;48.358;10.746;2022-10-30T02:35:24;4.07;;;3.60;;
10013;SDS011;45684;48.358;10.746;2022-10-30T02:37:52;4.73;;;3.70;;
10013;SDS011;45684;48.358;10.746;2022-10-30T02:40:20;3.30;;;3.00;;
10013;SDS011;45684;48.358;10.746;2022-10-30T02:42:50;5.20;;;3.27;;
10013;SDS011;45684;48.358;10.746;2022-10-30T02:45:18;3.33;;;3.07;;
10013;SDS011;45684;48.358;10.746;2022-10-30T02:47:46;5.17;;;3.43;;
10013;SDS011;45684;48.358;10.746;2022-10-30T02:50:15;4.27;;;3.20;;
10013;SDS011;45684;48.358;10.746;2022-10-30T02:52:44;6.27;;;3.27;;
10013;SDS011;45684;48.358;10.746;2022-10-30T02:55:12;4.53;;;3.97;;
10013;SDS011;45684;48.358;10.746;2022-10-30T02:57:40;4.07;;;3.30;;
10013;SDS011;45684;48.358;10.746;2022-10-30T03:00:08;4.80;;;3.30;;
10013;SDS011;45684;48.358;10.746;2022-10-30T03:02:38;3.33;;;2.80;;
10013;SDS011;45684;48.358;10.746;2022-10-30T03:05:06;4.20;;;3.50;;
10013;SDS011;45684;48.358;10.746;2022-10-30T03:07:34;3.83;;;3.33;;
10013;SDS011;45684;48.358;10.746;2022-10-30T03:10:03;4.17;;;3.33;;
10013;SDS011;45684;48.358;10.746;2022-10-30T03:12:32;3.93;;;2.97;;
10013;SDS011;45684;48.358;10.746;2022-10-30T03:14:59;4.77;;;3.70;;
10013;SDS011;45684;48.358;10.746;2022-10-30T03:17:27;5.80;;;3.83;;
10013;SDS011;45684;48.358;10.746;2022-10-30T03:19:55;4.07;;;3.67;;
10013;SDS011;45684;48.358;10.746;2022-10-30T03:22:23;3.80;;;3.30;;
10013;SDS011;45684;48.358;10.746;2022-10-30T03:24:51;4.43;;;3.57;;
10013;SDS011;45684;48.358;10.746;2022-10-30T03:27:21;4.37;;;2.87;;
10013;SDS011;45684;48.358;10.746;2022-10-30T03:29:49;3.70;;;3.03;;
10013;SDS011;45684;48.358;10.746;2022-10-30T03:32:17;3.40;;;3.03;;
10013;SDS011;45684;48.358;10.746;2022-10-30T03:34:50;3.10;;;2.90;;
10013;SDS011;45684;48.358;10.746;2022-10-30T03:37:17;3.37;;;2.90;;
10013;SDS011;45684;48.358;10.746;2022-10-30T03:39:45;3.53;;;3.00;;
10013;SDS011;45684;48.358;10.746;2022-10-30T03:42:13;2.90;;;2.70;;
10013;SDS011;45684;48.358;10.746;2022-10-30T03:44:43;4.23;;;3.00;;
10013;SDS011;45684;48.358;10.746;2022-10-30T03:47:10;3.73;;;2.90;;
10013;SDS011;45684;48.358;10.746;2022-10-30T03:49:41;3.03;;;2.53;;
10013;SDS011;45684;48.358;10.746;2022-10-30T03:52:12;6.93;;;3.27;;
10013;SDS011;45684;48.358;10.746;2022-10-30T03:54:40;3.70;;;2.90;;
10013;SDS011;45684;48.358;10.746;2022-10-30T03:57:09;3.13;;;2.83;;
10013;SDS011;45684;48.358;10.746;2022-10-30T04:00:05;3.03;;;2.77;;
10013;SDS011;45684;48.358;10.746;2022-10-30T04:02:45;2.67;;;2.47;;
10013;SDS011;45684;48.358;10.746;2022-10-30T04:05:15;2.63;;;2.43;;
10013;SDS011;45684;48.358;10.746;2022-10-30T04:07:45;5.23;;;2.80;;
10013;SDS011;45684;48.358;10.746;2022-10-30T04:10:14;2.67;;;2.50;;
10013;SDS011;45684;48.358;10.746;2022-10-30T04:12:49;3.07;;;2.73;;
10013;SDS011;45684;48.358;10.746;2022-10-30T04:15:18;3.20;;;2.87;;
10013;SDS011;45684;48.358;10.746;2022-10-30T04:17:49;3.07;;;2.87;;
10013;SDS011;45684;48.358;10.746;2022-10-30T04:20:19;3.10;;;2.67;;
10013;SDS011;45684;48.358;10.746;2022-10-30T04:22:48;4.50;;;3.10;;
10013;SDS011;45684;48.358;10.746;2022-10-30T04:25:21;3.63;;;3.00;;
10013;SDS011;45684;48.358;10.746;2022-10-30T04:27:50;5.43;;;3.20;;
10013;SDS011;45684;48.358;10.746;2022-10-30T04:30:20;3.40;;;3.10;;
10013;SDS011;45684;48.358;10.746;2022-10-30T04:32:50;3.67;;;3.10;;
10013;SDS011;45684;48.358;10.746;2022-10-30T04:35:20;3.83;;;3.13;;
10013;SDS011;45684;48.358;10.746;2022-10-30T04:37:53;3.20;;;2.93;;
10013;SDS011;45684;48.358;10.746;2022-10-30T04:40:22;3.30;;;3.00;;
10013;SDS011;45684;48.358;10.746;2022-10-30T04:42:55;3.30;;;3.00;;
10013;SDS011;45684;48.358;10.746;2022-10-30T04:45:26;3.57;;;3.03;;
10013;SDS011;45684;48.358;10.746;2022-10-30T04:47:58;4.20;;;2.90;;
10013;SDS011;45684;48.358;10.746;2022-10-30T04:50:29;3.80;;;2.90;;
10013;SDS011;45684;48.358;10.746;2022-10-30T04:52:58;4.57;;;3.30;;
10013;SDS011;45684;48.358;10.746;2022-10-30T04:55:27;4.57;;;3.37;;
10013;SDS011;45684;48.358;10.746;2022-10-30T04:57:55;3.03;;;2.73;;
10013;SDS011;45684;48.358;10.746;2022-10-30T05:00:24;3.83;;;3.20;;
10013;SDS011;45684;48.358;10.746;2022-10-30T05:02:59;3.47;;;3.17;;
10013;SDS011;45684;48.358;10.746;2022-10-30T05:05:28;3.73;;;3.13;;
10013;SDS011;45684;48.358;10.746;2022-10-30T05:07:56;4.73;;;3.00;;
10013;SDS011;45684;48.358;10.746;2022-10-30T05:10:25;5.27;;;3.17;;
10013;SDS011;45684;48.358;10.746;2022-10-30T05:12:52;3.00;;;2.50;;
10013;SDS011;45684;48.358;10.746;2022-10-30T05:15:20;3.27;;;2.50;;
10013;SDS011;45684;48.358;10.746;2022-10-30T05:17:50;2.90;;;2.57;;
10013;SDS011;45684;48.358;10.746;2022-10-30T05:20:20;2.40;;;2.17;;
10013;SDS011;45684;48.358;10.746;2022-10-30T05:22:52;3.63;;;2.80;;
10013;SDS011;45684;48.358;10.746;2022-10-30T05:25:21;3.13;;;2.60;;
10013;SDS011;45684;48.358;10.746;2022-10-30T05:27:49;5.40;;;2.97;;
10013;SDS011;45684;48.358;10.746;2022-10-30T05:30:17;4.37;;;3.07;;
10013;SDS011;45684;48.358;10.746;2022-10-30T05:32:45;3.60;;;3.00;;
10013;SDS011;45684;48.358;10.746;2022-10-30T05:35:13;3.67;;;2.53;;
10013;SDS011;45684;48.358;10.746;2022-10-30T05:37:43;2.80;;;2.60;;
10013;SDS011;45684;48.358;10.746;2022-10-30T05:40:11;3.27;;;2.97;;
10013;SDS011;45684;48.358;10.746;2022-10-30T05:42:43;3.30;;;3.00;;
10013;SDS011;45684;48.358;10.746;2022-10-30T05:45:11;3.63;;;2.97;;
10013;SDS011;45684;48.358;10.746;2022-10-30T05:47:42;4.03;;;3.03;;
10013;SDS011;45684;48.358;10.746;2022-10-30T05:50:10;3.07;;;2.73;;
10013;SDS011;45684;48.358;10.746;2022-10-30T05:52:55;3.60;;;3.20;;
10013;SDS011;45684;48.358;10.746;2022-10-30T05:55:23;4.37;;;3.00;;
10013;SDS011;45684;48.358;10.746;2022-10-30T05:58:11;4.97;;;3.10;;
10013;SDS011;45684;48.358;10.746;2022-10-30T06:00:41;4.23;;;3.13;;
10013;SDS011;45684;48.358;10.746;2022-10-30T06:03:13;3.93;;;3.60;;
10013;SDS011;45684;48.358;10.746;2022-10-30T06:05:43;3.53;;;3.23;;
10013;SDS011;45684;48.358;10.746;2022-10-30T06:08:15;5.83;;;3.70;;
10013;SDS011;45684;48.358;10.746;2022-10-30T06:10:44;9.83;;;3.87;;
10013;SDS011;45684;48.358;10.746;2022-10-30T06:13:15;4.43;;;3.20;;
10013;SDS011;45684;48.358;10.746;2022-10-30T06:15:53;5.77;;;3.20;;
10013;SDS011;45684;48.358;10.746;2022-10-30T06:18:24;6.93;;;5.00;;
10013;SDS011;45684;48.358;10.746;2022-10-30T06:20:53;11.53;;;8.80;;
10013;SDS011;45684;48.358;10.746;2022-10-30T06:23:43;11.13;;;8.57;;
10013;SDS011;45684;48.358;10.746;2022-10-30T06:26:30;11.03;;;8.37;;
10013;SDS011;45684;48.358;10.746;2022-10-30T06:29:04;10.40;;;7.67;;
10013;SDS011;45684;48.358;10.746;2022-10-30T06:31:32;9.50;;;7.33;;
10013;SDS011;45684;48.358;10.746;2022-10-30T06:34:00;8.87;;;7.63;;
10013;SDS011;45684;48.358;10.746;2022-10-30T06:36:30;8.07;;;6.83;;
10013;SDS011;45684;48.358;10.746;2022-10-30T06:39:00;7.87;;;6.20;;
10013;SDS011;45684;48.358;10.746;2022-10-30T06:41:35;16.23;;;7.60;;
10013;SDS011;45684;48.358;10.746;2022-10-30T06:44:26;12.27;;;8.83;;
10013;SDS011;45684;48.358;10.746;2022-10-30T06:46:53;10.80;;;9.03;;
10013;SDS011;45684;48.358;10.746;2022-10-30T06:49:21;14.40;;;10.67;;
10013;SDS011;45684;48.358;10.746;2022-10-30T06:51:50;14.53;;;9.60;;
10013;SDS011;45684;48.358;10.746;2022-10-30T06:54:19;10.40;;;8.63;;
10013;SDS011;45684;48.358;10.746;2022-10-30T06:56:59;11.23;;;8.87;;
10013;SDS011;45684;48.358;10.746;2022-10-30T06:59:46;11.67;;;8.93;;
10013;SDS011;45684;48.358;10.746;2022-10-30T07:02:40;8.93;;;7.03;;
10013;SDS011;45684;48.358;10.746;2022-10-30T07:05:10;8.57;;;7.00;;
10013;SDS011;45684;48.358;10.746;2022-10-30T07:07:38;7.60;;;6.20;;
10013;SDS011;45684;48.358;10.746;2022-10-30T07:10:08;7.33;;;6.63;;
10013;SDS011;45684;48.358;10.746;2022-10-30T07:13:04;7.20;;;6.50;;
10013;SDS011;45684;48.358;10.746;2022-10-30T07:15:52;11.43;;;7.67;;
10013;SDS011;45684;48.358;10.746;2022-10-30T07:18:25;7.97;;;7.17;;
10013;SDS011;45684;48.358;10.746;2022-10-30T07:20:56;9.13;;;6.97;;
10013;SDS011;45684;48.358;10.746;2022-10-30T07:23:25;8.10;;;6.43;;
10013;SDS011;45684;48.358;10.746;2022-10-30T07:26:02;8.73;;;7.20;;
10013;SDS011;45684;48.358;10.746;2022-10-30T07:28:42;8.20;;;7.30;;
10013;SDS011;45684;48.358;10.746;2022-10-30T07:31:22;9.60;;;6.83;;
10013;SDS011;45684;48.358;10.746;2022-10-30T07:34:19;7.93;;;6.30;;
10013;SDS011;45684;48.358;10.746;2022-10-30T07:37:00;6.63;;;5.97;;
10013;SDS011;45684;48.358;10.746;2022-10-30T07:39:39;6.80;;;6.00;;
10013;SDS011;45684;48.358;10.746;2022-10-30T07:42:21;6.60;;;5.37;;
10013;SDS011;45684;48.358;10.746;2022-10-30T07:45:07;6.83;;;5.33;;
10013;SDS011;45684;48.358;10.746;2022-10-30T07:48:12;5.57;;;4.93;;
10013;SDS011;45684;48.358;10.746;2022-10-30T07:50:46;8.07;;;5.23;;
10013;SDS011;45684;48.358;10.746;2022-10-30T07:53:13;6.00;;;4.90;;
10013;SDS011;45684;48.358;10.746;2022-10-30T07:55:43;6.27;;;4.97;;
10013;SDS011;45684;48.358;10.746;2022-10-30T07:58:12;6.77;;;4.93;;
10013;SDS011;45684;48.358;10.746;2022-10-30T08:01:12;8.53;;;6.13;;
10013;SDS011;45684;48.358;10.746;2022-10-30T08:03:41;5.67;;;5.20;;
10013;SDS011;45684;48.358;10.746;2022-10-30T08:06:22;7.47;;;6.03;;
10013;SDS011;45684;48.358;10.746;2022-10-30T08:08:52;7.03;;;5.57;;
10013;SDS011;45684;48.358;10.746;2022-10-30T08:11:25;6.57;;;5.70;;
10013;SDS011;45684;48.358;10.746;2022-10-30T08:13:56;5.47;;;4.97;;
10013;SDS011;45684;48.358;10.746;2022-10-30T08:16:24;5.10;;;4.50;;
10013;SDS011;45684;48.358;10.746;2022-10-30T08:18:52;5.17;;;4.30;;
10013;SDS011;45684;48.358;10.746;2022-10-30T08:21:23;4.83;;;4.37;;
10013;SDS011;45684;48.358;10.746;2022-10-30T08:24:17;8.73;;;4.40;;
10013;SDS011;45684;48.358;10.746;2022-10-30T08:26:46;6.30;;;4.60;;
10013;SDS011;45684;48.358;10.746;2022-10-30T08:29:21;6.93;;;4.50;;
10013;SDS011;45684;48.358;10.746;2022-10-30T08:31:50;5.90;;;4.47;;
10013;SDS011;45684;48.358;10.746;2022-10-30T08:34:21;6.07;;;4.00;;
10013;SDS011;45684;48.358;10.746;2022-10-30T08:36:51;4.67;;;4.17;;
10013;SDS011;45684;48.358;10.746;2022-10-30T08:39:19;5.40;;;4.07;;
10013;SDS011;45684;48.358;10.746;2022-10-30T08:42:00;4.97;;;4.43;;
10013;SDS011;45684;48.358;10.746;2022-10-30T08:44:35;5.07;;;4.27;;
10013;SDS011;45684;48.358;10.746;2022-10-30T08:47:21;7.50;;;4.80;;
10013;SDS011;45684;48.358;10.746;2022-10-30T08:49:49;4.87;;;4.20;;
10013;SDS011;45684;48.358;10.746;2022-10-30T08:52:20;6.10;;;4.20;;
10013;SDS011;45684;48.358;10.746;2022-10-30T08:54:53;7.37;;;4.90;;
10013;SDS011;45684;48.358;10.746;2022-10-30T08:57:23;5.27;;;4.40;;
10013;SDS011;45684;48.358;10.746;2022-10-30T08:59:54;6.07;;;4.80;;
10013;SDS011;45684;48.358;10.746;2022-10-30T09:02:40;6.70;;;4.97;;
10013;SDS011;45684;48.358;10.746;2022-10-30T09:05:26;5.73;;;4.87;;
10013;SDS011;45684;48.358;10.746;2022-10-30T09:08:13;7.37;;;4.50;;
10013;SDS011;45684;48.358;10.746;2022-10-30T09:11:06;6.20;;;4.40;;
10013;SDS011;45684;48.358;10.746;2022-10-30T09:13:35;5.27;;;4.73;;
10013;SDS011;45684;48.358;10.746;2022-10-30T09:16:06;6.77;;;4.93;;
10013;SDS011;45684;48.358;10.746;2022-10-30T09:18:36;6.70;;;4.77;;
10013;SDS011;45684;48.358;10.746;2022-10-30T09:21:04;5.37;;;4.50;;
10013;SDS011;45684;48.358;10.746;2022-10-30T09:23:38;7.53;;;4.67;;
10013;SDS011;45684;48.358;10.746;2022-10-30T09:26:25;5.00;;;4.50;;
10013;SDS011;45684;48.358;10.746;2022-10-30T09:28:59;5.57;;;4.80;;
10013;SDS011;45684;48.358;10.746;2022-10-30T09:31:47;7.07;;;4.93;;
10013;SDS011;45684;48.358;10.746;2022-10-30T09:34:18;7.73;;;4.90;;
10013;SDS011;45684;48.358;10.746;2022-10-30T09:36:53;5.43;;;4.20;;
10013;SDS011;45684;48.358;10.746;2022-10-30T09:39:22;7.70;;;4.67;;
10013;SDS011;45684;48.358;10.746;2022-10-30T09:42:03;9.43;;;4.97;;
10013;SDS011;45684;48.358;10.746;2022-10-30T09:44:59;9.40;;;4.90;;
10013;SDS011;45684;48.358;10.746;2022-10-30T09:47:57;7.50;;;4.50;;
10013;SDS011;45684;48.358;10.746;2022-10-30T09:50:45;7.70;;;4.57;;
10013;SDS011;45684;48.358;10.746;2022-10-30T09:53:24;8.43;;;4.07;;
10013;SDS011;45684;48.358;10.746;2022-10-30T09:56:05;10.63;;;4.70;;
10013;SDS011;45684;48.358;10.746;2022-10-30T09:58:40;7.77;;;4.20;;
10013;SDS011;45684;48.358;10.746;2022-10-30T10:01:20;4.93;;;3.57;;
10013;SDS011;45684;48.358;10.746;2022-10-30T10:04:02;7.37;;;4.20;;
10013;SDS011;45684;48.358;10.746;2022-10-30T10:07:16;8.47;;;4.20;;
10013;SDS011;45684;48.358;10.746;2022-10-30T10:10:04;7.40;;;3.87;;
10013;SDS011;45684;48.358;10.746;2022-10-30T10:12:57;9.60;;;4.20;;
10013;SDS011;45684;48.358;10.746;2022-10-30T10:15:30;7.90;;;4.00;;
10013;SDS011;45684;48.358;10.746;2022-10-30T10:18:04;10.13;;;4.50;;
10013;SDS011;45684;48.358;10.746;2022-10-30T10:20:42;7.23;;;3.40;;
10013;SDS011;45684;48.358;10.746;2022-10-30T10:23:15;9.50;;;3.77;;
10013;SDS011;45684;48.358;10.746;2022-10-30T10:25:46;6.80;;;3.70;;
10013;SDS011;45684;48.358;10.746;2022-10-30T10:28:23;13.47;;;4.03;;
10013;SDS011;45684;48.358;10.746;2022-10-30T10:31:04;7.47;;;4.23;;
10013;SDS011;45684;48.358;10.746;2022-10-30T10:33:43;8.13;;;3.97;;
10013;SDS011;45684;48.358;10.746;2022-10-30T10:36:27;7.60;;;3.93;;
10013;SDS011;45684;48.358;10.746;2022-10-30T10:39:05;10.13;;;4.50;;
10013;SDS011;45684;48.358;10.746;2022-10-30T10:41:52;7.90;;;4.10;;
10013;SDS011;45684;48.358;10.746;2022-10-30T10:44:31;10.57;;;4.37;;
10013;SDS011;45684;48.358;10.746;2022-10-30T10:47:14;8.83;;;4.37;;
10013;SDS011;45684;48.358;10.746;2022-10-30T10:50:00;8.50;;;4.13;;
10013;SDS011;45684;48.358;10.746;2022-10-30T10:52:42;6.67;;;4.10;;
10013;SDS011;45684;48.358;10.746;2022-10-30T10:55:14;11.10;;;4.30;;
10013;SDS011;45684;48.358;10.746;2022-10-30T10:57:45;7.97;;;3.90;;
10013;SDS011;45684;48.358;10.746;2022-10-30T11:00:14;8.30;;;4.40;;
10013;SDS011;45684;48.358;10.746;2022-10-30T11:02:44;8.97;;;4.40;;
10013;SDS011;45684;48.358;10.746;2022-10-30T11:05:20;9.57;;;4.30;;
10013;SDS011;45684;48.358;10.746;2022-10-30T11:07:56;7.70;;;3.57;;
10013;SDS011;45684;48.358;10.746;2022-10-30T11:10:27;7.50;;;4.10;;
10013;SDS011;45684;48.358;10.746;2022-10-30T11:12:55;8.70;;;4.00;;
10013;SDS011;45684;48.358;10.746;2022-10-30T11:18:16;6.35;;;3.53;;
10013;SDS011;45684;48.358;10.746;2022-10-30T11:20:47;7.47;;;3.60;;
10013;SDS011;45684;48.358;10.746;2022-10-30T11:23:36;7.68;;;3.53;;
10013;SDS011;45684;48.358;10.746;2022-10-30T11:26:25;5.95;;;3.90;;
10013;SDS011;45684;48.358;10.746;2022-10-30T11:29:09;6.80;;;3.40;;
10013;SDS011;45684;48.358;10.746;2022-10-30T11:31:39;5.97;;;3.58;;
10013;SDS011;45684;48.358;10.746;2022-10-30T11:34:12;6.18;;;3.45;;
10013;SDS011;45684;48.358;10.746;2022-10-30T11:36:41;7.45;;;3.60;;
10013;SDS011;45684;48.358;10.746;2022-10-30T11:39:14;8.40;;;3.33;;
10013;SDS011;45684;48.358;10.746;2022-10-30T11:41:44;9.63;;;3.30;;
10013;SDS011;45684;48.358;10.746;2022-10-30T11:44:21;6.13;;;3.38;;
10013;SDS011;45684;48.358;10.746;2022-10-30T11:46:51;7.80;;;3.47;;
10013;SDS011;45684;48.358;10.746;2022-10-30T11:49:23;9.68;;;3.47;;
10013;SDS011;45684;48.358;10.746;2022-10-30T11:51:54;8.45;;;3.15;;
10013;SDS011;45684;48.358;10.746;2022-10-30T11:54:23;8.35;;;3.10;;
10013;SDS011;45684;48.358;10.746;2022-10-30T11:56:53;6.82;;;3.50;;
10013;SDS011;45684;48.358;10.746;2022-10-30T11:59:22;8.02;;;3.45;;
10013;SDS011;45684;48.358;10.746;2022-10-30T12:01:57;7.25;;;2.95;;
10013;SDS011;45684;48.358;10.746;2022-10-30T12:04:28;9.68;;;3.42;;
10013;SDS011;45684;48.358;10.746;2022-10-30T12:07:08;9.50;;;3.55;;
10013;SDS011;45684;48.358;10.746;2022-10-30T12:09:48;7.15;;;2.88;;
10013;SDS011;45684;48.358;10.746;2022-10-30T12:12:20;8.13;;;3.20;;
10013;SDS011;45684;48.358;10.746;2022-10-30T12:14:49;7.13;;;3.10;;
10013;SDS011;45684;48.358;10.746;2022-10-30T12:17:18;5.22;;;2.80;;
10013;SDS011;45684;48.358;10.746;2022-10-30T12:19:48;7.43;;;3.10;;
10013;SDS011;45684;48.358;10.746;2022-10-30T12:22:26;6.97;;;2.92;;
10013;SDS011;45684;48.358;10.746;2022-10-30T12:24:58;6.63;;;2.88;;
10013;SDS011;45684;48.358;10.746;2022-10-30T12:27:28;5.70;;;2.45;;
10013;SDS011;45684;48.358;10.746;2022-10-30T12:30:03;7.82;;;2.83;;
10013;SDS011;45684;48.358;10.746;2022-10-30T12:32:40;4.60;;;2.83;;
10013;SDS011;45684;48.358;10.746;2022-10-30T12:35:17;6.03;;;2.53;;
10013;SDS011;45684;48.358;10.746;2022-10-30T12:37:52;5.28;;;2.88;;
10013;SDS011;45684;48.358;10.746;2022-10-30T12:40:26;4.15;;;2.30;;
10013;SDS011;45684;48.358;10.746;2022-10-30T12:42:58;8.05;;;3.13;;
10013;SDS011;45684;48.358;10.746;2022-10-30T12:45:40;5.47;;;3.10;;
10013;SDS011;45684;48.358;10.746;2022-10-30T12:48:13;4.57;;;3.03;;
10013;SDS011;45684;48.358;10.746;2022-10-30T12:50:46;6.95;;;3.08;;
10013;SDS011;45684;48.358;10.746;2022-10-30T12:53:24;3.08;;;2.63;;
10013;SDS011;45684;48.358;10.746;2022-10-30T12:56:00;5.35;;;2.88;;
10013;SDS011;45684;48.358;10.746;2022-10-30T12:58:35;4.65;;;2.70;;
10013;SDS011;45684;48.358;10.746;2022-10-30T13:01:13;7.25;;;3.22;;
10013;SDS011;45684;48.358;10.746;2022-10-30T13:03:52;7.00;;;2.83;;
10013;SDS011;45684;48.358;10.746;2022-10-30T13:06:26;6.20;;;2.92;;
10013;SDS011;45684;48.358;10.746;2022-10-30T13:09:03;7.22;;;3.50;;
10013;SDS011;45684;48.358;10.746;2022-10-30T13:11:41;4.15;;;2.60;;
10013;SDS011;45684;48.358;10.746;2022-10-30T13:14:15;4.70;;;2.70;;
10013;SDS011;45684;48.358;10.746;2022-10-30T13:16:45;6.85;;;2.80;;
10013;SDS011;45684;48.358;10.746;2022-10-30T13:19:13;4.32;;;3.10;;
10013;SDS011;45684;48.358;10.746;2022-10-30T13:21:42;4.70;;;2.63;;
10013;SDS011;45684;48.358;10.746;2022-10-30T13:24:19;4.00;;;2.50;;
10013;SDS011;45684;48.358;10.746;2022-10-30T13:26:56;4.72;;;2.80;;
10013;SDS011;45684;48.358;10.746;2022-10-30T13:29:30;3.85;;;2.70;;
10013;SDS011;45684;48.358;10.746;2022-10-30T13:32:12;5.88;;;2.85;;
10013;SDS011;45684;48.358;10.746;2022-10-30T13:34:52;4.78;;;2.65;;
10013;SDS011;45684;48.358;10.746;2022-10-30T13:37:25;5.18;;;3.10;;
10013;SDS011;45684;48.358;10.746;2022-10-30T13:40:04;4.80;;;2.72;;
10013;SDS011;45684;48.358;10.746;2022-10-30T13:42:45;5.20;;;2.55;;
10013;SDS011;45684;48.358;10.746;2022-10-30T13:45:25;4.28;;;2.45;;
10013;SDS011;45684;48.358;10.746;2022-10-30T13:48:09;5.53;;;2.70;;
10013;SDS011;45684;48.358;10.746;2022-10-30T13:50:46;4.00;;;2.78;;
10013;SDS011;45684;48.358;10.746;2022-10-30T13:53:32;6.30;;;3.53;;
10013;SDS011;45684;48.358;10.746;2022-10-30T13:56:05;10.30;;;5.43;;
10013;SDS011;45684;48.358;10.746;2022-10-30T13:58:39;9.40;;;4.50;;
10013;SDS011;45684;48.358;10.746;2022-10-30T14:01:14;8.82;;;3.30;;
10013;SDS011;45684;48.358;10.746;2022-10-30T14:03:47;7.65;;;3.10;;
10013;SDS011;45684;48.358;10.746;2022-10-30T14:06:22;5.72;;;2.90;;
10013;SDS011;45684;48.358;10.746;2022-10-30T14:09:01;8.10;;;3.00;;
10013;SDS011;45684;48.358;10.746;2022-10-30T14:11:37;7.45;;;3.17;;
10013;SDS011;45684;48.358;10.746;2022-10-30T14:14:23;5.15;;;3.22;;
10013;SDS011;45684;48.358;10.746;2022-10-30T14:17:12;8.27;;;3.30;;
10013;SDS011;45684;48.358;10.746;2022-10-30T14:23:07;4.88;;;3.08;;
10013;SDS011;45684;48.358;10.746;2022-10-30T14:25:39;10.90;;;3.78;;
10013;SDS011;45684;48.358;10.746;2022-10-30T14:28:16;10.32;;;3.60;;
10013;SDS011;45684;48.358;10.746;2022-10-30T14:30:47;6.72;;;3.22;;
10013;SDS011;45684;48.358;10.746;2022-10-30T14:33:39;7.55;;;3.80;;
10013;SDS011;45684;48.358;10.746;2022-10-30T14:36:14;8.18;;;3.20;;
10013;SDS011;45684;48.358;10.746;2022-10-30T14:38:59;9.60;;;3.42;;
10013;SDS011;45684;48.358;10.746;2022-10-30T14:41:51;10.93;;;3.17;;
10013;SDS011;45684;48.358;10.746;2022-10-30T14:50:30;6.80;;;3.15;;
10013;SDS011;45684;48.358;10.746;2022-10-30T14:53:15;6.95;;;3.33;;
10013;SDS011;45684;48.358;10.746;2022-10-30T14:55:54;10.80;;;3.50;;
10013;SDS011;45684;48.358;10.746;2022-10-30T14:58:28;8.53;;;3.30;;
10013;SDS011;45684;48.358;10.746;2022-10-30T15:04:13;5.80;;;3.08;;
10013;SDS011;45684;48.358;10.746;2022-10-30T15:06:58;12.23;;;5.03;;
10013;SDS011;45684;48.358;10.746;2022-10-30T15:15:28;6.00;;;3.53;;
10013;SDS011;45684;48.358;10.746;2022-10-30T15:17:57;7.23;;;3.50;;
10013;SDS011;45684;48.358;10.746;2022-10-30T15:20:29;6.93;;;3.13;;
10013;SDS011;45684;48.358;10.746;2022-10-30T15:22:59;6.70;;;3.17;;
10013;SDS011;45684;48.358;10.746;2022-10-30T15:25:32;7.07;;;3.47;;
10013;SDS011;45684;48.358;10.746;2022-10-30T15:28:02;6.37;;;3.27;;
10013;SDS011;45684;48.358;10.746;2022-10-30T15:30:30;7.90;;;3.23;;
10013;SDS011;45684;48.358;10.746;2022-10-30T15:32:58;6.40;;;3.30;;
10013;SDS011;45684;48.358;10.746;2022-10-30T15:35:28;9.57;;;3.47;;